Terminal Aerodrome Forecast
Issued by NWS St Louis, MO

Home | Current Version | Previous Version | Text Only | Print | Product List | Glossary On
Versions: 1 2 3 4 5 6 7 8 9 10 11 12 13 14 15 16 17 18 19 20
308
FTUS43 KLSX 290520
TAFCOU
TAF
KCOU 290520Z 2906/3006 36005KT P6SM BKN250
     FM291500 08009KT P6SM BKN120
     FM292100 09010KT P6SM VCSH BKN040
     FM300100 09011KT 5SM -SHRA VCTS OVC015CB=

USA.gov is the U.S. government's official web portal to all federal, state and local government web resources and services.